Terminal Aerodrome Forecast
Issued by NWS

Home | Current Version | Previous Version | Graphics & Text | Print | Product List | Glossary On
Versions: 1 2 3 4 5 6 7 8 9 10 11 12 13 14 15 16 17
000
FTUS43 KBIS 271700
TAFJMS
TAF
KJMS 271732Z 2718/2818 17010KT P6SM SKC
     FM280500 09006KT P6SM SCT250
     FM281100 04010KT P6SM SCT070
     FM281500 04011KT P6SM BKN035=

USA.gov is the U.S. government's official web portal to all federal, state and local government web resources and services.